createdAt,value
2019-02-28T00:00:41.423Z,9.87
2019-02-28T00:03:46.745Z,9.37
2019-02-28T00:06:50.397Z,9.80
2019-02-28T00:09:53.888Z,9.87
2019-02-28T00:12:57.355Z,8.20
2019-02-28T00:16:03.441Z,8.93
2019-02-28T00:19:06.308Z,8.33
2019-02-28T00:22:11.364Z,9.13
2019-02-28T00:25:14.984Z,8.53
2019-02-28T00:28:18.655Z,8.63
2019-02-28T00:31:22.092Z,8.35
2019-02-28T00:34:25.696Z,7.72
2019-02-28T00:37:29.185Z,8.13
2019-02-28T00:40:32.599Z,8.18
2019-02-28T00:43:36.063Z,7.62
2019-02-28T00:46:44.064Z,7.95
2019-02-28T00:49:44.857Z,7.95
2019-02-28T00:52:48.320Z,7.72
2019-02-28T00:55:51.765Z,7.30
2019-02-28T00:58:55.224Z,8.33
2019-02-28T01:01:58.760Z,7.70
2019-02-28T01:05:04.983Z,8.40
2019-02-28T01:08:07.775Z,7.92
2019-02-28T01:11:13.251Z,7.90
2019-02-28T01:14:16.456Z,8.60
2019-02-28T01:17:19.965Z,7.83
2019-02-28T01:20:23.570Z,7.37
2019-02-28T01:23:29.364Z,7.28
2019-02-28T01:26:32.411Z,7.73
2019-02-28T01:29:36.424Z,7.58
2019-02-28T01:32:39.996Z,7.00
2019-02-28T01:35:44.453Z,7.62
2019-02-28T01:38:47.915Z,8.43
2019-02-28T01:41:51.422Z,8.00
2019-02-28T01:44:56.052Z,8.05
2019-02-28T01:47:59.575Z,7.97
2019-02-28T01:51:03.202Z,7.37
2019-02-28T01:54:06.859Z,7.55
2019-02-28T01:57:10.268Z,7.60
2019-02-28T02:00:14.480Z,8.00
2019-02-28T02:03:17.884Z,7.72
2019-02-28T02:06:22.470Z,7.55
2019-02-28T02:09:26.770Z,7.42
2019-02-28T02:12:31.827Z,7.75
2019-02-28T02:15:35.608Z,7.28
2019-02-28T02:18:40.221Z,8.07
2019-02-28T02:21:44.569Z,7.75
2019-02-28T02:24:47.925Z,7.80
2019-02-28T02:27:53.345Z,7.73
2019-02-28T02:30:56.610Z,7.55
2019-02-28T02:34:00.175Z,8.08
2019-02-28T02:37:03.781Z,7.87
2019-02-28T02:40:08.210Z,6.67
2019-02-28T02:43:11.710Z,7.25
2019-02-28T02:46:19.656Z,8.20
2019-02-28T02:49:20.456Z,8.13
2019-02-28T02:52:29.924Z,8.58
2019-02-28T02:55:29.353Z,8.47
2019-02-28T02:58:32.910Z,8.23
2019-02-28T03:01:36.304Z,7.62
2019-02-28T03:04:39.700Z,7.72
2019-02-28T03:07:43.410Z,8.00
2019-02-28T03:10:46.855Z,8.58
2019-02-28T03:13:50.414Z,7.75
2019-02-28T03:16:53.823Z,7.37
2019-02-28T03:19:57.217Z,8.38
2019-02-28T03:23:02.276Z,8.43
2019-02-28T03:26:07.089Z,9.23
2019-02-28T03:29:10.799Z,8.78
2019-02-28T03:32:19.193Z,8.75
2019-02-28T03:35:22.818Z,7.93
2019-02-28T03:38:26.211Z,7.80
2019-02-28T03:41:29.927Z,9.20
2019-02-28T03:44:33.363Z,9.25
2019-02-28T03:47:36.869Z,9.23
2019-02-28T03:50:40.368Z,9.45
2019-02-28T03:53:43.828Z,9.75
2019-02-28T03:56:52.855Z,10.85
2019-02-28T03:59:56.785Z,8.23
2019-02-28T04:02:59.048Z,10.70
2019-02-28T04:06:03.644Z,10.20
2019-02-28T04:09:09.049Z,10.40
2019-02-28T04:12:12.668Z,9.60
2019-02-28T04:15:16.272Z,11.18
2019-02-28T04:18:19.733Z,12.82
2019-02-28T04:21:23.170Z,12.40
2019-02-28T04:24:26.676Z,13.50
2019-02-28T04:27:31.340Z,12.07
2019-02-28T04:30:35.028Z,12.70
2019-02-28T04:33:39.328Z,12.73
2019-02-28T04:36:42.945Z,13.45
2019-02-28T04:39:46.401Z,13.08
2019-02-28T04:42:49.801Z,12.90
2019-02-28T04:45:53.299Z,14.00
2019-02-28T04:48:56.748Z,14.25
2019-02-28T04:52:00.207Z,14.03
2019-02-28T04:55:03.982Z,14.90
2019-02-28T04:58:07.511Z,16.05
2019-02-28T05:01:12.386Z,15.30
2019-02-28T05:04:16.465Z,15.25
2019-02-28T05:07:19.981Z,16.02
2019-02-28T05:10:23.497Z,17.07
2019-02-28T05:13:27.072Z,17.32
2019-02-28T05:16:30.806Z,16.87
2019-02-28T05:19:35.734Z,17.45
2019-02-28T05:22:39.639Z,18.20
2019-02-28T05:25:43.168Z,17.70
2019-02-28T05:28:46.644Z,18.07
2019-02-28T05:31:50.043Z,19.20
2019-02-28T05:34:53.532Z,19.87
2019-02-28T05:37:57.040Z,21.05
2019-02-28T05:41:00.375Z,20.87
2019-02-28T05:44:06.320Z,21.57
2019-02-28T05:47:10.888Z,21.20
2019-02-28T05:50:16.584Z,21.85
2019-02-28T05:53:19.572Z,22.40
2019-02-28T05:56:23.003Z,24.50
2019-02-28T05:59:27.555Z,25.27
2019-02-28T06:02:31.000Z,25.12
2019-02-28T06:05:34.506Z,24.70
2019-02-28T06:08:39.206Z,24.70
2019-02-28T06:11:43.960Z,24.00
2019-02-28T06:14:47.460Z,25.40
2019-02-28T06:17:54.773Z,25.05
2019-02-28T06:20:56.247Z,26.53
2019-02-28T06:23:59.712Z,26.40
2019-02-28T06:27:03.757Z,25.65
2019-02-28T06:30:09.525Z,26.27
2019-02-28T06:33:12.880Z,26.68
2019-02-28T06:36:16.320Z,27.85
2019-02-28T06:39:19.886Z,26.33
2019-02-28T06:42:23.393Z,26.50
2019-02-28T06:45:26.892Z,25.40
2019-02-28T06:48:30.397Z,27.40
2019-02-28T06:51:33.392Z,26.95
2019-02-28T06:54:39.935Z,27.05
2019-02-28T06:57:42.248Z,28.42
2019-02-28T07:00:47.365Z,27.75
2019-02-28T07:03:53.626Z,28.40
2019-02-28T07:06:56.337Z,27.62
2019-02-28T07:09:59.843Z,28.85
2019-02-28T07:13:04.546Z,30.17
2019-02-28T07:16:08.480Z,30.73
2019-02-28T07:19:11.990Z,29.12
2019-02-28T07:22:19.155Z,29.85
2019-02-28T07:25:20.734Z,30.43
2019-02-28T07:28:24.128Z,29.63
2019-02-28T07:31:27.530Z,31.87
2019-02-28T07:34:30.968Z,31.27
2019-02-28T07:37:34.660Z,31.93
2019-02-28T07:40:38.246Z,35.48
2019-02-28T07:43:45.848Z,31.62
2019-02-28T07:46:47.019Z,34.13
2019-02-28T07:49:50.592Z,32.98
2019-02-28T07:52:54.028Z,34.45
2019-02-28T07:55:57.638Z,31.48
2019-02-28T07:59:01.118Z,35.40
2019-02-28T08:02:04.546Z,33.15
2019-02-28T08:05:09.021Z,32.30
2019-02-28T08:08:12.464Z,25.90
2019-02-28T08:11:15.964Z,34.15
2019-02-28T08:14:19.425Z,31.73
2019-02-28T08:17:22.877Z,35.85
2019-02-28T08:20:26.433Z,32.55
2019-02-28T08:23:31.276Z,31.27
2019-02-28T08:26:34.916Z,33.48
2019-02-28T08:29:38.733Z,37.38
2019-02-28T08:32:43.987Z,31.82
2019-02-28T08:35:47.633Z,29.55
2019-02-28T08:38:51.136Z,30.35
2019-02-28T08:42:03.034Z,31.10
2019-02-28T08:44:59.986Z,32.88
2019-02-28T08:48:03.536Z,33.48
2019-02-28T08:51:07.044Z,33.83
2019-02-28T08:54:10.592Z,34.78
2019-02-28T08:57:14.132Z,25.88
2019-02-28T09:00:18.314Z,27.45
2019-02-28T09:03:24.276Z,27.87
2019-02-28T09:06:27.651Z,32.20
2019-02-28T09:09:31.651Z,31.27
2019-02-28T09:12:36.356Z,29.67
2019-02-28T09:15:39.921Z,31.25
2019-02-28T09:18:44.774Z,32.35
2019-02-28T09:21:49.381Z,33.20
2019-02-28T09:24:53.704Z,33.53
2019-02-28T09:27:57.244Z,32.98
2019-02-28T09:31:01.436Z,32.42
2019-02-28T09:34:09.179Z,32.45
2019-02-28T09:37:12.360Z,30.62
2019-02-28T09:40:15.827Z,30.52
2019-02-28T09:43:23.965Z,29.72
2019-02-28T09:46:25.596Z,30.72
2019-02-28T09:49:29.095Z,31.62
2019-02-28T09:52:33.560Z,32.80
2019-02-28T09:55:37.121Z,30.55
2019-02-28T09:58:40.664Z,32.10
2019-02-28T10:01:44.229Z,31.40
2019-02-28T10:04:47.734Z,29.82
2019-02-28T10:07:51.276Z,29.70
2019-02-28T10:10:55.793Z,30.55
2019-02-28T10:14:00.080Z,30.12
2019-02-28T10:17:03.580Z,29.37
2019-02-28T10:20:09.976Z,29.50
2019-02-28T10:23:13.395Z,30.85
2019-02-28T10:26:17.240Z,30.68
2019-02-28T10:29:21.382Z,29.87
2019-02-28T10:32:24.788Z,30.52
2019-02-28T10:35:28.184Z,30.08
2019-02-28T10:38:33.123Z,30.17
2019-02-28T10:41:36.929Z,29.95
2019-02-28T10:44:40.433Z,30.05
2019-02-28T10:47:43.830Z,31.30
2019-02-28T10:50:47.269Z,31.07
2019-02-28T10:53:50.754Z,30.40
2019-02-28T10:56:54.232Z,30.23
2019-02-28T10:59:58.155Z,31.77
2019-02-28T11:03:02.986Z,28.67
2019-02-28T11:06:06.632Z,31.23
2019-02-28T11:09:21.660Z,31.90
2019-02-28T11:12:23.936Z,29.35
2019-02-28T11:15:27.600Z,29.25
2019-02-28T11:18:31.040Z,29.65
2019-02-28T11:21:34.741Z,30.60
2019-02-28T11:24:38.150Z,30.43
2019-02-28T11:27:41.852Z,30.00
2019-02-28T11:30:45.852Z,29.67
2019-02-28T11:33:49.268Z,29.98
2019-02-28T11:36:52.660Z,31.00
2019-02-28T11:39:56.167Z,29.23
2019-02-28T11:43:02.734Z,30.92
2019-02-28T11:46:07.308Z,27.60
2019-02-28T11:49:10.916Z,29.87
2019-02-28T11:52:15.971Z,28.45
2019-02-28T11:55:21.320Z,29.27
2019-02-28T11:58:24.697Z,29.77
2019-02-28T12:01:29.188Z,31.52
2019-02-28T12:04:32.713Z,29.72
2019-02-28T12:07:36.178Z,28.42
2019-02-28T12:10:39.718Z,28.30
2019-02-28T12:13:43.332Z,29.80
2019-02-28T12:16:46.796Z,28.20
2019-02-28T12:19:50.680Z,28.45
2019-02-28T12:22:54.624Z,30.85
2019-02-28T12:25:58.164Z,27.35
2019-02-28T12:29:01.668Z,28.38
2019-02-28T12:32:08.039Z,27.17
2019-02-28T12:35:10.625Z,29.45
2019-02-28T12:38:14.180Z,29.23
2019-02-28T12:41:17.627Z,28.10
2019-02-28T12:44:21.133Z,30.02
2019-02-28T12:47:26.397Z,30.55
2019-02-28T12:50:31.026Z,31.73
2019-02-28T12:53:34.579Z,30.90
2019-02-28T12:56:38.044Z,28.92
2019-02-28T12:59:41.835Z,28.85
2019-02-28T13:02:47.259Z,29.05
2019-02-28T13:05:50.948Z,30.10
2019-02-28T13:08:54.504Z,29.20
2019-02-28T13:11:57.933Z,28.62
2019-02-28T13:15:01.349Z,29.42
2019-02-28T13:18:09.037Z,26.27
2019-02-28T13:21:11.569Z,28.98
2019-02-28T13:24:15.239Z,30.62
2019-02-28T13:27:19.000Z,27.50
2019-02-28T13:30:22.862Z,28.20
2019-02-28T13:33:26.342Z,28.65
2019-02-28T13:36:29.823Z,30.57
2019-02-28T13:39:33.260Z,30.35
2019-02-28T13:42:40.618Z,29.20
2019-02-28T13:45:42.005Z,30.92
2019-02-28T13:48:45.772Z,30.23
2019-02-28T13:51:49.172Z,28.40
2019-02-28T13:54:52.621Z,30.65
2019-02-28T13:57:57.099Z,30.40
2019-02-28T14:01:00.609Z,31.17
2019-02-28T14:04:04.100Z,31.73
2019-02-28T14:07:07.915Z,31.57
2019-02-28T14:10:11.694Z,32.05
2019-02-28T14:13:16.045Z,29.87
2019-02-28T14:16:19.448Z,30.15
2019-02-28T14:19:22.844Z,30.92
2019-02-28T14:22:26.246Z,32.40
2019-02-28T14:25:29.976Z,31.00
2019-02-28T14:28:35.672Z,32.13
2019-02-28T14:31:38.800Z,29.67
2019-02-28T14:34:42.196Z,28.90
2019-02-28T14:37:45.604Z,32.00
2019-02-28T14:40:49.639Z,30.12
2019-02-28T14:43:56.094Z,29.65
2019-02-28T14:47:00.408Z,30.75
2019-02-28T14:50:04.828Z,29.55
2019-02-28T14:53:13.032Z,30.43
2019-02-28T14:56:13.884Z,29.12
2019-02-28T14:59:17.283Z,25.77
2019-02-28T15:02:20.825Z,27.52
2019-02-28T15:05:24.491Z,29.23
2019-02-28T15:08:28.022Z,28.05
2019-02-28T15:11:31.496Z,29.42
2019-02-28T15:14:34.999Z,29.25
2019-02-28T15:17:38.930Z,28.57
2019-02-28T15:20:43.032Z,26.35
2019-02-28T15:23:46.529Z,26.93
2019-02-28T15:26:49.928Z,26.75
2019-02-28T15:29:55.528Z,27.27
2019-02-28T15:32:58.578Z,26.02
2019-02-28T15:36:02.077Z,25.95
2019-02-28T15:39:06.596Z,27.87
2019-02-28T15:42:10.653Z,29.18
2019-02-28T15:45:14.324Z,29.65
2019-02-28T15:48:17.760Z,29.65
2019-02-28T15:51:21.364Z,30.65
2019-02-28T15:54:25.365Z,30.37
2019-02-28T15:57:30.141Z,31.02
2019-02-28T16:00:34.944Z,31.85
2019-02-28T16:03:38.413Z,29.57
2019-02-28T16:06:41.951Z,30.92
2019-02-28T16:09:45.416Z,29.12
2019-02-28T16:12:51.174Z,28.65
2019-02-28T16:15:54.712Z,28.25
2019-02-28T16:18:58.176Z,28.20
2019-02-28T16:22:01.621Z,27.60
2019-02-28T16:25:06.404Z,24.07
2019-02-28T16:28:09.948Z,26.00
2019-02-28T16:31:13.452Z,27.75
2019-02-28T16:34:17.016Z,27.98
2019-02-28T16:37:20.451Z,25.75
2019-02-28T16:40:26.897Z,27.07
2019-02-28T16:43:30.188Z,25.40
2019-02-28T16:46:33.825Z,25.75
2019-02-28T16:49:37.400Z,27.25
2019-02-28T16:52:40.951Z,25.92
2019-02-28T16:55:44.400Z,27.32
2019-02-28T16:58:47.948Z,26.45
2019-02-28T17:01:54.874Z,27.00
2019-02-28T17:04:59.627Z,26.57
2019-02-28T17:08:03.066Z,26.15
2019-02-28T17:11:06.560Z,26.30
2019-02-28T17:14:15.967Z,27.98
2019-02-28T17:17:30.425Z,25.65
2019-02-28T17:20:33.820Z,25.40
2019-02-28T17:23:38.193Z,27.00
2019-02-28T17:27:06.244Z,27.35
2019-02-28T17:30:19.555Z,24.67
2019-02-28T17:33:23.066Z,26.17
2019-02-28T17:36:26.457Z,28.60
2019-02-28T17:39:29.960Z,29.50
2019-02-28T17:42:33.360Z,28.15
2019-02-28T17:45:37.176Z,28.42
2019-02-28T17:49:23.346Z,27.00
2019-02-28T17:52:38.307Z,26.35
2019-02-28T17:56:22.753Z,27.30
2019-02-28T17:59:45.251Z,27.77
2019-02-28T18:03:28.692Z,25.97
2019-02-28T18:07:31.140Z,28.62
2019-02-28T18:11:09.184Z,24.70
2019-02-28T18:14:41.679Z,27.32
2019-02-28T18:18:24.801Z,25.85
2019-02-28T18:21:50.225Z,25.43
2019-02-28T18:25:33.150Z,24.30
2019-02-28T18:29:08.426Z,25.97
2019-02-28T18:32:12.461Z,28.32
2019-02-28T18:35:15.945Z,25.77
2019-02-28T18:38:19.445Z,27.42
2019-02-28T18:41:23.014Z,26.25
2019-02-28T18:44:26.656Z,26.93
2019-02-28T18:47:30.120Z,28.30
2019-02-28T18:50:33.508Z,27.58
2019-02-28T18:53:37.057Z,26.55
2019-02-28T18:56:40.557Z,26.77
2019-02-28T18:59:44.162Z,28.17
2019-02-28T19:02:47.668Z,26.52
2019-02-28T19:05:51.124Z,29.05
2019-02-28T19:08:54.768Z,28.40
2019-02-28T19:11:58.332Z,29.12
2019-02-28T19:15:02.700Z,27.70
2019-02-28T19:18:06.513Z,29.23
2019-02-28T19:21:10.068Z,28.30
2019-02-28T19:24:13.608Z,28.02
2019-02-28T19:27:17.200Z,27.55
2019-02-28T19:30:20.680Z,30.08
2019-02-28T19:33:24.116Z,27.95
2019-02-28T19:36:27.585Z,28.10
2019-02-28T19:39:31.020Z,29.00
2019-02-28T19:42:34.683Z,30.00
2019-02-28T19:45:39.111Z,28.70
2019-02-28T19:48:42.652Z,31.30
2019-02-28T19:51:46.220Z,29.57
2019-02-28T19:54:49.761Z,30.43
2019-02-28T19:57:53.324Z,28.92
2019-02-28T20:00:56.832Z,28.42
2019-02-28T20:04:00.510Z,28.52
2019-02-28T20:07:04.083Z,29.00
2019-02-28T20:10:10.550Z,27.58
2019-02-28T20:13:15.167Z,27.45
2019-02-28T20:16:18.859Z,27.03
2019-02-28T20:19:22.388Z,26.57
2019-02-28T20:22:25.960Z,28.17
2019-02-28T20:25:29.357Z,28.07
2019-02-28T20:28:32.853Z,29.20
2019-02-28T20:31:36.561Z,29.17
2019-02-28T20:34:41.032Z,28.95
2019-02-28T20:37:44.655Z,29.20
2019-02-28T20:40:48.751Z,27.93
2019-02-28T20:43:52.416Z,28.60
2019-02-28T20:46:57.828Z,30.00
2019-02-28T20:50:03.075Z,30.85
2019-02-28T20:53:06.796Z,28.90
2019-02-28T20:56:11.541Z,28.95
2019-02-28T21:00:02.175Z,28.40
2019-02-28T21:03:08.728Z,33.33
2019-02-28T21:06:12.844Z,29.23
2019-02-28T21:09:18.106Z,30.95
2019-02-28T21:12:22.979Z,32.50
2019-02-28T21:15:27.671Z,36.60
2019-02-28T21:18:32.173Z,36.37
2019-02-28T21:21:36.917Z,32.37
2019-02-28T21:24:41.048Z,33.73
2019-02-28T21:27:45.772Z,33.23
2019-02-28T21:30:50.371Z,30.87
2019-02-28T21:33:54.605Z,29.50
2019-02-28T21:36:59.550Z,31.67
2019-02-28T21:40:04.953Z,31.93
2019-02-28T21:43:09.683Z,33.23
2019-02-28T21:46:13.616Z,34.50
2019-02-28T21:49:19.365Z,33.87
2019-02-28T21:52:23.681Z,31.93
2019-02-28T21:55:28.268Z,33.10
2019-02-28T21:58:32.796Z,34.55
2019-02-28T22:01:38.274Z,33.78
2019-02-28T22:04:42.317Z,32.63
2019-02-28T22:07:46.129Z,32.30
2019-02-28T22:10:49.535Z,30.83
2019-02-28T22:13:53.136Z,30.17
2019-02-28T22:16:56.540Z,32.30
2019-02-28T22:20:00.142Z,33.63
2019-02-28T22:23:03.858Z,29.60
2019-02-28T22:26:07.361Z,29.80
2019-02-28T22:29:10.796Z,31.50
2019-02-28T22:32:24.670Z,31.10
2019-02-28T22:35:34.594Z,34.43
2019-02-28T22:38:38.203Z,32.23
2019-02-28T22:41:41.760Z,31.70
2019-02-28T22:44:45.272Z,70.67
2019-02-28T22:47:48.675Z,44.20
2019-02-28T22:50:52.165Z,41.20
2019-02-28T22:53:55.666Z,37.70
2019-02-28T22:56:59.208Z,41.90
2019-02-28T23:00:02.903Z,37.63
2019-02-28T23:03:08.369Z,35.20
2019-02-28T23:06:11.896Z,33.00
2019-02-28T23:09:15.433Z,32.10
2019-02-28T23:12:19.072Z,30.43
2019-02-28T23:15:22.564Z,28.40
2019-02-28T23:18:26.227Z,29.67
2019-02-28T23:21:29.684Z,28.43
2019-02-28T23:24:33.253Z,27.87
2019-02-28T23:27:36.688Z,28.83
2019-02-28T23:31:04.728Z,29.52
2019-02-28T23:34:16.532Z,27.62
2019-02-28T23:37:19.964Z,28.90
2019-02-28T23:40:23.531Z,26.33
2019-02-28T23:43:26.928Z,28.05
2019-02-28T23:46:30.376Z,27.63
2019-02-28T23:49:33.936Z,27.05
2019-02-28T23:52:37.473Z,26.63
2019-02-28T23:55:40.940Z,25.92
2019-02-28T23:58:44.340Z,27.67
